Time;durP1;ratioP1;P1;durP2;ratioP2;P2;SDS_P1;SDS_P2;PMS_P1;PMS_P2;Temp;Humidity;BMP_temperature;BMP_pressure;BME280_temperature;BME280_humidity;BME280_pressure;Samples;Min_cycle;Max_cycle;Signal;HPM_P1;HPM_P2
2023/01/08 00:00:57;;;;;;;3.35;2.28;;;9.30;99.90;;;;;;5021591;28;20402;-65
2023/01/08 00:03:22;;;;;;;6.95;2.00;;;9.30;99.90;;;;;;5020850;28;20056;-65
2023/01/08 00:05:48;;;;;;;3.85;2.22;;;9.30;99.90;;;;;;5020454;28;20079;-65
2023/01/08 00:08:14;;;;;;;2.53;2.03;;;9.30;99.90;;;;;;5038000;28;20045;-65
2023/01/08 00:10:40;;;;;;;3.35;2.40;;;9.40;99.90;;;;;;5021087;28;20041;-65
2023/01/08 00:13:06;;;;;;;3.25;2.08;;;9.40;99.90;;;;;;5017478;28;20600;-65
2023/01/08 00:15:33;;;;;;;3.45;2.28;;;9.40;99.90;;;;;;5038513;28;20080;-65
2023/01/08 00:17:59;;;;;;;2.70;1.73;;;9.40;99.90;;;;;;5021495;28;20033;-64
2023/01/08 00:20:25;;;;;;;4.35;2.30;;;9.40;99.90;;;;;;5005777;28;20037;-64
2023/01/08 00:22:51;;;;;;;2.22;1.75;;;9.50;99.90;;;;;;5021375;28;20494;-65
2023/01/08 00:25:17;;;;;;;3.08;2.10;;;9.50;99.90;;;;;;5019972;28;20076;-64
2023/01/08 00:27:43;;;;;;;2.95;1.80;;;9.50;99.90;;;;;;5038369;28;20135;-65
2023/01/08 00:30:10;;;;;;;2.33;1.90;;;9.50;99.90;;;;;;5004583;28;20041;-64
2023/01/08 00:32:36;;;;;;;3.53;2.20;;;9.50;99.90;;;;;;5019947;28;20122;-65
2023/01/08 00:35:02;;;;;;;3.58;2.05;;;9.60;99.90;;;;;;5039763;28;20068;-65
2023/01/08 00:37:27;;;;;;;3.20;1.52;;;9.60;99.90;;;;;;5023395;28;20514;-65
2023/01/08 00:39:53;;;;;;;3.20;1.90;;;9.60;99.90;;;;;;5006497;28;20071;-67
2023/01/08 00:42:19;;;;;;;2.35;1.52;;;9.60;99.90;;;;;;5025162;28;20049;-64
2023/01/08 00:44:45;;;;;;;2.42;1.52;;;9.60;99.90;;;;;;5020288;28;20384;-65
2023/01/08 00:47:11;;;;;;;3.35;1.83;;;9.70;99.90;;;;;;5038902;28;20048;-65
2023/01/08 00:49:37;;;;;;;2.83;1.45;;;9.70;99.90;;;;;;5021919;28;20041;-65
2023/01/08 00:52:03;;;;;;;2.63;1.58;;;9.70;99.90;;;;;;5019946;28;20088;-65
2023/01/08 00:54:29;;;;;;;2.35;1.77;;;9.70;99.90;;;;;;5018579;28;20613;-65
2023/01/08 00:56:55;;;;;;;2.72;1.77;;;9.70;99.90;;;;;;5036682;28;20044;-66
2023/01/08 00:59:20;;;;;;;2.63;1.77;;;9.60;99.90;;;;;;5019105;28;20228;-65
2023/01/08 01:01:47;;;;;;;2.60;1.88;;;9.60;99.90;;;;;;5001793;28;20047;-66
2023/01/08 01:04:13;;;;;;;2.20;1.45;;;9.60;99.90;;;;;;5003435;28;20055;-65
2023/01/08 01:06:40;;;;;;;2.30;1.70;;;9.50;99.90;;;;;;5019427;28;20044;-66
2023/01/08 01:09:06;;;;;;;2.20;1.73;;;9.60;99.90;;;;;;5037347;28;20056;-64
2023/01/08 01:11:32;;;;;;;2.55;1.60;;;9.50;99.90;;;;;;4985855;28;20044;-65
2023/01/08 01:13:58;;;;;;;3.65;1.67;;;9.60;99.90;;;;;;5035172;28;20438;-64
2023/01/08 01:16:24;;;;;;;2.17;1.73;;;9.60;99.90;;;;;;4992801;28;20070;-64
2023/01/08 01:18:51;;;;;;;3.13;2.10;;;9.60;99.90;;;;;;5037180;28;20179;-64
2023/01/08 01:21:29;;;;;;;3.15;1.40;;;9.60;99.90;;;;;;5017863;28;20040;-65
2023/01/08 01:23:57;;;;;;;3.10;1.60;;;9.60;99.90;;;;;;5037732;28;20505;-66
2023/01/08 01:26:24;;;;;;;2.80;1.67;;;9.60;99.90;;;;;;5035869;28;20051;-66
2023/01/08 01:28:52;;;;;;;2.60;1.70;;;9.50;99.90;;;;;;5033994;28;20128;-65
2023/01/08 01:31:19;;;;;;;3.95;1.80;;;9.50;99.90;;;;;;5036989;28;20048;-66
2023/01/08 01:33:45;;;;;;;3.65;1.50;;;9.40;99.90;;;;;;5003254;28;20040;-66
2023/01/08 01:36:12;;;;;;;2.55;1.70;;;9.40;99.90;;;;;;5017883;28;20051;-64
2023/01/08 01:38:41;;;;;;;2.75;1.48;;;9.40;99.90;;;;;;5001534;28;20041;-65
2023/01/08 01:41:08;;;;;;;1.90;1.20;;;9.40;99.90;;;;;;5002749;28;20079;-65
2023/01/08 01:43:41;;;;;;;3.35;1.38;;;9.40;99.90;;;;;;5019269;28;20053;-65
2023/01/08 01:46:30;;;;;;;3.22;1.20;;;9.40;99.90;;;;;;5036253;28;20033;-65
2023/01/08 01:49:00;;;;;;;2.28;1.15;;;9.40;99.90;;;;;;5039387;28;20127;-67
2023/01/08 01:51:31;;;;;;;2.97;1.02;;;9.40;99.90;;;;;;5019101;28;20041;-64
2023/01/08 01:53:58;;;;;;;3.35;1.30;;;9.40;99.90;;;;;;5018534;28;20529;-63
2023/01/08 01:56:24;;;;;;;2.15;1.13;;;9.40;99.90;;;;;;5038256;28;20033;-64
2023/01/08 01:58:50;;;;;;;1.52;1.20;;;9.40;99.90;;;;;;5037338;28;20572;-64
2023/01/08 02:01:15;;;;;;;3.10;1.52;;;9.40;99.90;;;;;;5025822;28;20045;-63
2023/01/08 02:03:41;;;;;;;2.42;1.40;;;9.50;99.90;;;;;;5025420;28;20073;-64
2023/01/08 02:06:24;;;;;;;4.53;1.70;;;9.40;99.90;;;;;;5036272;28;20033;-64
2023/01/08 02:09:07;;;;;;;5.57;1.55;;;9.50;99.90;;;;;;5010246;28;20043;-63
2023/01/08 02:11:45;;;;;;;2.20;1.65;;;9.40;99.90;;;;;;5036604;28;20518;-63
2023/01/08 02:14:36;;;;;;;2.33;1.40;;;9.40;99.90;;;;;;5036433;28;20083;-64
2023/01/08 02:17:08;;;;;;;3.35;1.27;;;9.40;99.90;;;;;;5035820;28;20359;-64
2023/01/08 02:20:11;;;;;;;4.18;1.60;;;9.50;99.90;;;;;;5035322;28;20040;-64
2023/01/08 02:23:14;;;;;;;3.15;1.60;;;9.40;99.90;;;;;;5022578;28;20141;-65
2023/01/08 02:26:11;;;;;;;4.38;1.30;;;9.40;99.90;;;;;;5036622;28;20703;-63
2023/01/08 02:29:10;;;;;;;5.50;1.58;;;9.30;99.90;;;;;;5037407;28;20047;-63
2023/01/08 02:31:40;;;;;;;2.20;1.17;;;9.30;99.90;;;;;;5031805;28;20115;-64
2023/01/08 02:34:06;;;;;;;4.63;1.10;;;9.30;99.90;;;;;;5018827;28;20041;-64
2023/01/08 02:36:36;;;;;;;3.75;1.15;;;9.20;99.90;;;;;;5036158;28;20028;-63
2023/01/08 02:39:05;;;;;;;4.93;1.10;;;9.30;99.90;;;;;;5037381;28;20041;-65
2023/01/08 02:41:39;;;;;;;4.25;0.90;;;9.20;99.90;;;;;;5036479;28;20068;-64
2023/01/08 02:44:08;;;;;;;5.97;0.98;;;9.20;99.90;;;;;;5036014;28;20483;-63
2023/01/08 02:46:36;;;;;;;7.30;1.25;;;9.10;99.90;;;;;;5021688;28;20033;-65
2023/01/08 02:49:09;;;;;;;4.97;1.00;;;9.10;99.90;;;;;;5024357;28;20103;-64
2023/01/08 02:51:48;;;;;;;8.32;1.00;;;9.10;99.90;;;;;;5016684;28;20037;-64
2023/01/08 02:54:20;;;;;;;6.43;1.08;;;9.00;99.90;;;;;;5021733;28;20060;-63
2023/01/08 02:56:50;;;;;;;3.80;0.88;;;8.90;99.90;;;;;;5023619;28;20387;-64
2023/01/08 02:59:18;;;;;;;5.95;0.70;;;9.00;99.90;;;;;;5039719;28;20063;-64
2023/01/08 03:01:45;;;;;;;14.07;1.23;;;8.90;99.90;;;;;;5005343;28;20116;-63
2023/01/08 03:04:18;;;;;;;5.93;1.00;;;8.90;99.90;;;;;;5006311;28;20041;-64
2023/01/08 03:06:44;;;;;;;6.60;0.93;;;8.90;99.90;;;;;;5022442;28;20044;-64
2023/01/08 03:09:10;;;;;;;5.35;0.70;;;8.80;99.90;;;;;;5023525;28;20056;-63
2023/01/08 03:11:52;;;;;;;6.97;0.75;;;8.80;99.90;;;;;;5007330;28;20041;-63
2023/01/08 03:14:25;;;;;;;7.03;0.82;;;8.80;99.90;;;;;;5039771;28;20061;-63
2023/01/08 03:17:13;;;;;;;6.68;0.93;;;8.80;99.90;;;;;;5022014;28;20107;-64
2023/01/08 03:19:48;;;;;;;6.88;0.80;;;8.70;99.90;;;;;;5040332;28;20036;-64
2023/01/08 03:22:16;;;;;;;8.23;1.25;;;8.70;99.90;;;;;;5018830;28;20747;-64
2023/01/08 03:24:45;;;;;;;10.13;1.35;;;8.60;99.90;;;;;;5040617;28;20048;-64
2023/01/08 03:27:16;;;;;;;9.63;0.90;;;8.70;99.90;;;;;;5021679;28;20490;-64
2023/01/08 03:29:43;;;;;;;11.10;1.13;;;8.60;99.90;;;;;;5040656;28;20037;-64
2023/01/08 03:32:14;;;;;;;12.68;1.30;;;8.60;99.90;;;;;;5022020;28;20056;-63
2023/01/08 03:34:42;;;;;;;10.60;0.95;;;8.50;99.10;;;;;;5040469;28;20037;-64
2023/01/08 03:37:10;;;;;;;6.63;0.60;;;8.40;99.90;;;;;;5039420;28;20036;-64
2023/01/08 03:39:57;;;;;;;9.25;0.95;;;8.40;99.90;;;;;;5039485;28;20036;-64
2023/01/08 03:42:25;;;;;;;7.88;0.70;;;8.40;99.90;;;;;;5040384;28;20987;-65
2023/01/08 03:44:51;;;;;;;10.32;0.90;;;8.30;99.90;;;;;;5042567;28;20039;-64
2023/01/08 03:47:18;;;;;;;12.05;0.98;;;8.30;99.90;;;;;;5041936;28;20037;-64
2023/01/08 03:49:45;;;;;;;9.63;0.93;;;8.30;99.90;;;;;;5025323;28;20056;-63
2023/01/08 03:52:26;;;;;;;9.15;0.90;;;8.30;99.90;;;;;;5023605;28;20049;-63
2023/01/08 03:54:52;;;;;;;8.77;0.70;;;8.30;99.90;;;;;;5024199;28;20207;-63
2023/01/08 03:57:18;;;;;;;11.45;1.15;;;8.30;99.90;;;;;;5024120;28;20119;-63
2023/01/08 03:59:44;;;;;;;8.00;1.17;;;8.30;99.90;;;;;;5026272;28;20068;-63
2023/01/08 04:02:10;;;;;;;7.95;0.88;;;8.30;99.90;;;;;;5024270;28;20479;-64
2023/01/08 04:04:36;;;;;;;10.32;0.98;;;8.30;99.90;;;;;;5042581;28;20144;-63
2023/01/08 04:07:02;;;;;;;9.85;0.95;;;8.30;99.90;;;;;;5025054;28;20051;-67
2023/01/08 04:09:27;;;;;;;8.73;1.20;;;8.20;99.90;;;;;;5041362;28;20103;-63
2023/01/08 04:11:53;;;;;;;10.85;0.80;;;8.20;99.90;;;;;;5013645;28;20293;-64
2023/01/08 04:14:19;;;;;;;12.60;0.88;;;8.20;99.90;;;;;;5021292;28;20048;-65
2023/01/08 04:16:45;;;;;;;12.50;1.10;;;8.30;99.90;;;;;;5020504;28;20071;-64
2023/01/08 04:19:11;;;;;;;11.07;1.23;;;8.20;99.90;;;;;;5038527;28;20033;-63
2023/01/08 04:21:38;;;;;;;10.55;1.42;;;8.20;99.90;;;;;;5038847;28;20048;-64
2023/01/08 04:24:04;;;;;;;8.10;0.82;;;8.20;99.90;;;;;;5021473;28;20072;-64
2023/01/08 04:26:30;;;;;;;9.80;1.10;;;8.10;99.90;;;;;;5037786;28;20033;-63
2023/01/08 04:28:56;;;;;;;9.90;1.02;;;8.10;99.90;;;;;;5005003;28;20451;-64
2023/01/08 04:31:22;;;;;;;9.20;0.82;;;8.10;99.90;;;;;;5019599;28;20123;-64
2023/01/08 04:33:48;;;;;;;9.55;1.02;;;8.00;99.90;;;;;;5020618;28;20119;-64
2023/01/08 04:36:14;;;;;;;7.25;1.15;;;8.00;99.90;;;;;;5038508;28;20091;-64
2023/01/08 04:38:39;;;;;;;9.10;1.17;;;7.90;99.90;;;;;;5037634;28;20041;-63
2023/01/08 04:41:05;;;;;;;8.07;0.77;;;7.90;99.90;;;;;;5037939;28;20079;-63
2023/01/08 04:43:32;;;;;;;8.30;1.38;;;7.90;99.90;;;;;;5002888;28;20259;-63
2023/01/08 04:45:59;;;;;;;10.32;1.10;;;7.80;99.90;;;;;;5038551;28;20119;-63
2023/01/08 04:48:26;;;;;;;6.00;1.02;;;7.90;99.90;;;;;;5039289;28;21561;-64
2023/01/08 04:50:51;;;;;;;9.70;1.50;;;7.80;99.90;;;;;;5037910;28;20359;-63
2023/01/08 04:53:17;;;;;;;7.05;1.23;;;7.80;99.90;;;;;;5017559;28;20243;-63
2023/01/08 04:55:43;;;;;;;9.48;1.77;;;7.80;99.90;;;;;;5036356;28;20030;-62
2023/01/08 04:58:08;;;;;;;6.88;1.50;;;7.90;99.90;;;;;;5036448;28;20033;-63
2023/01/08 05:00:34;;;;;;;8.68;1.67;;;7.80;99.90;;;;;;5039121;28;20332;-63
2023/01/08 05:03:00;;;;;;;7.57;1.75;;;7.90;1.00;;;;;;5020405;28;20048;-62
2023/01/08 05:05:26;;;;;;;6.60;1.55;;;8.00;1.00;;;;;;5018859;28;20037;-63
2023/01/08 05:07:52;;;;;;;5.80;2.13;;;7.90;1.00;;;;;;5020032;28;20041;-62
2023/01/08 05:10:17;;;;;;;5.72;1.77;;;8.00;1.00;;;;;;5018120;28;20430;-63
2023/01/08 05:12:43;;;;;;;5.75;1.92;;;8.10;1.00;;;;;;5038263;28;20462;-64
2023/01/08 05:15:09;;;;;;;8.38;1.98;;;8.10;1.00;;;;;;5037900;28;20297;-64
2023/01/08 05:17:35;;;;;;;5.63;1.90;;;8.20;1.00;;;;;;5020816;28;20646;-66
2023/01/08 05:20:00;;;;;;;6.03;2.10;;;8.30;25.80;;;;;;5020331;28;20080;-65
2023/01/08 05:22:26;;;;;;;5.20;1.70;;;8.30;62.10;;;;;;5037113;28;20044;-65
2023/01/08 05:24:52;;;;;;;5.38;2.03;;;8.40;66.60;;;;;;4987546;28;20037;-64
2023/01/08 05:27:18;;;;;;;4.43;1.55;;;8.40;92.70;;;;;;5037271;28;20041;-64
2023/01/08 05:29:44;;;;;;;4.50;1.55;;;8.50;78.50;;;;;;5037805;28;20033;-63
2023/01/08 05:32:17;;;;;;;8.25;2.50;;;8.50;59.20;;;;;;5044072;28;20056;-64
2023/01/08 05:34:44;;;;;;;4.45;1.45;;;8.60;20.40;;;;;;5026976;28;20051;-63
2023/01/08 05:37:10;;;;;;;3.58;1.27;;;8.60;25.70;;;;;;5018309;28;20041;-64
2023/01/08 05:39:37;;;;;;;5.22;1.33;;;8.50;1.00;;;;;;5036987;28;20724;-62
2023/01/08 05:42:03;;;;;;;5.55;1.10;;;8.60;1.00;;;;;;5036390;28;20063;-64
2023/01/08 05:44:29;;;;;;;4.88;1.15;;;8.50;1.00;;;;;;5038213;28;20045;-64
2023/01/08 05:46:55;;;;;;;5.60;1.27;;;8.60;1.00;;;;;;5020616;28;20041;-65
2023/01/08 05:49:22;;;;;;;4.32;1.25;;;8.60;1.00;;;;;;5036400;28;20659;-63
2023/01/08 05:51:48;;;;;;;4.25;1.10;;;8.60;1.00;;;;;;5037529;28;20513;-63
2023/01/08 05:54:14;;;;;;;4.30;1.02;;;8.60;1.00;;;;;;5017580;28;20068;-64
2023/01/08 05:56:42;;;;;;;4.90;0.90;;;8.50;1.00;;;;;;4998483;28;20128;-65
2023/01/08 05:59:10;;;;;;;3.38;1.08;;;8.60;1.00;;;;;;5037365;28;20091;-62
2023/01/08 06:01:36;;;;;;;4.00;1.00;;;8.60;1.00;;;;;;5035876;28;20116;-62
2023/01/08 06:04:02;;;;;;;4.95;1.20;;;8.50;1.00;;;;;;5036142;28;20409;-63
2023/01/08 06:06:28;;;;;;;4.53;0.82;;;8.50;1.00;;;;;;4987337;28;20040;-65
2023/01/08 06:08:54;;;;;;;4.43;1.02;;;8.50;1.00;;;;;;5035955;28;20068;-65
2023/01/08 06:11:19;;;;;;;4.85;0.90;;;8.50;1.00;;;;;;5022557;28;20107;-65
2023/01/08 06:13:45;;;;;;;4.32;0.93;;;8.40;1.00;;;;;;5016546;28;20041;-63
2023/01/08 06:16:12;;;;;;;4.82;0.75;;;8.50;1.00;;;;;;5036728;28;20077;-63
2023/01/08 06:18:38;;;;;;;4.03;0.85;;;8.50;1.00;;;;;;5035707;28;20037;-62
2023/01/08 06:21:04;;;;;;;4.80;0.70;;;8.50;1.00;;;;;;5037883;28;20441;-63
2023/01/08 06:23:30;;;;;;;5.13;0.65;;;8.50;1.00;;;;;;5041693;28;20045;-66
2023/01/08 06:25:58;;;;;;;3.78;0.80;;;8.50;1.00;;;;;;5040105;28;20490;-63
2023/01/08 06:28:24;;;;;;;5.40;0.90;;;8.50;1.00;;;;;;5022652;28;20079;-62
2023/01/08 06:30:50;;;;;;;4.70;0.80;;;8.50;1.00;;;;;;5041360;28;20064;-64
2023/01/08 06:33:16;;;;;;;3.65;0.88;;;8.40;1.00;;;;;;5005869;28;20116;-62
2023/01/08 06:35:41;;;;;;;4.82;0.85;;;8.40;1.00;;;;;;5040864;28;20092;-63
2023/01/08 06:38:07;;;;;;;3.53;0.80;;;8.30;1.00;;;;;;5039898;28;20041;-64
2023/01/08 06:40:33;;;;;;;3.58;0.70;;;8.30;1.00;;;;;;5021122;28;20037;-63
2023/01/08 06:43:04;;;;;;;4.35;0.70;;;8.30;1.00;;;;;;5022214;28;20383;-63
2023/01/08 06:45:30;;;;;;;4.90;0.73;;;8.20;1.00;;;;;;5041258;28;20055;-62
2023/01/08 06:48:02;;;;;;;5.82;1.20;;;8.30;1.00;;;;;;5006533;28;20505;-63
2023/01/08 06:50:29;;;;;;;4.80;0.90;;;8.30;1.00;;;;;;5005115;28;20472;-63
2023/01/08 06:52:55;;;;;;;9.50;2.10;;;8.40;1.00;;;;;;5040094;28;20040;-64
2023/01/08 06:55:22;;;;;;;3.53;1.48;;;8.40;1.00;;;;;;5028675;28;20056;-64
2023/01/08 06:57:53;;;;;;;3.90;1.40;;;8.40;1.00;;;;;;5041446;28;20048;-64
2023/01/08 07:00:21;;;;;;;4.32;1.30;;;8.40;1.00;;;;;;5040349;28;20149;-62
2023/01/08 07:02:46;;;;;;;4.60;1.27;;;8.50;1.00;;;;;;5040880;28;20566;-64
2023/01/08 07:05:12;;;;;;;3.22;1.27;;;8.40;1.00;;;;;;5040542;28;20053;-63
2023/01/08 07:07:38;;;;;;;3.25;0.90;;;8.40;1.00;;;;;;5006161;28;20045;-63
2023/01/08 07:10:04;;;;;;;3.83;0.77;;;8.50;1.00;;;;;;5005463;28;20036;-63
2023/01/08 07:12:29;;;;;;;4.47;1.20;;;8.50;1.00;;;;;;5005209;28;20120;-63
2023/01/08 07:14:55;;;;;;;6.70;1.17;;;8.40;1.00;;;;;;5021332;28;20053;-63
2023/01/08 07:17:21;;;;;;;6.55;1.85;;;8.40;1.00;;;;;;5039224;28;20143;-64
2023/01/08 07:19:47;;;;;;;5.18;1.65;;;8.40;1.00;;;;;;5021942;28;20041;-62
2023/01/08 07:22:12;;;;;;;5.15;1.55;;;8.30;7.70;;;;;;5039498;28;20076;-62
2023/01/08 07:24:38;;;;;;;5.13;1.58;;;8.40;12.70;;;;;;5039539;28;20304;-63
2023/01/08 07:27:04;;;;;;;5.78;1.30;;;8.30;34.30;;;;;;5039912;28;20204;-62
2023/01/08 07:29:29;;;;;;;4.25;2.03;;;8.30;69.80;;;;;;5021306;28;20037;-63
2023/01/08 07:31:55;;;;;;;4.68;2.33;;;8.20;90.40;;;;;;4988051;28;20144;-67
2023/01/08 07:34:20;;;;;;;7.18;1.88;;;8.20;99.90;;;;;;5027659;28;20094;-65
2023/01/08 07:36:46;;;;;;;6.05;1.90;;;8.10;99.90;;;;;;5038513;28;20911;-64
2023/01/08 07:39:12;;;;;;;6.72;2.08;;;8.10;99.90;;;;;;5021041;28;20087;-64
2023/01/08 07:41:37;;;;;;;7.05;2.10;;;8.00;99.90;;;;;;5006547;28;20045;-64
2023/01/08 07:44:03;;;;;;;5.07;1.35;;;8.00;99.90;;;;;;5039240;28;20095;-64
2023/01/08 07:46:29;;;;;;;4.45;1.80;;;8.00;99.90;;;;;;5040248;28;20037;-65
2023/01/08 07:48:56;;;;;;;6.40;1.83;;;8.00;99.90;;;;;;5003775;28;20445;-65
2023/01/08 07:51:21;;;;;;;5.70;1.65;;;7.90;99.90;;;;;;5009487;28;20045;-64
2023/01/08 07:53:47;;;;;;;4.97;1.60;;;7.80;99.90;;;;;;5020573;28;20052;-65
2023/01/08 07:56:13;;;;;;;6.15;1.20;;;7.80;99.90;;;;;;5030838;28;20187;-64
2023/01/08 07:58:39;;;;;;;6.03;1.77;;;7.80;99.90;;;;;;5020784;28;20033;-66
2023/01/08 08:01:09;;;;;;;4.82;1.52;;;7.70;99.90;;;;;;5039042;28;20029;-63
2023/01/08 08:03:34;;;;;;;5.28;1.40;;;7.70;99.90;;;;;;5021718;28;20040;-64
2023/01/08 08:06:00;;;;;;;8.00;1.98;;;7.70;99.90;;;;;;5038549;28;20045;-63
2023/01/08 08:08:26;;;;;;;8.50;1.63;;;7.60;99.90;;;;;;5040168;28;20056;-64
2023/01/08 08:10:52;;;;;;;7.47;1.65;;;7.70;99.90;;;;;;5021026;28;20131;-63
2023/01/08 08:13:17;;;;;;;5.65;1.30;;;7.60;99.90;;;;;;5039613;28;20319;-64
2023/01/08 08:15:43;;;;;;;6.35;1.42;;;7.80;99.90;;;;;;5021717;28;20048;-63
2023/01/08 08:18:09;;;;;;;7.72;1.60;;;7.80;99.90;;;;;;5038607;28;20147;-63
2023/01/08 08:20:35;;;;;;;6.75;1.30;;;7.90;99.90;;;;;;5021668;28;20392;-63
2023/01/08 08:23:11;;;;;;;4.80;1.38;;;7.90;99.90;;;;;;5021225;28;20041;-64
2023/01/08 08:25:37;;;;;;;4.78;1.10;;;7.90;99.90;;;;;;5039357;28;20037;-64
2023/01/08 08:28:03;;;;;;;7.63;1.77;;;8.00;99.90;;;;;;5020607;28;20122;-62
2023/01/08 08:30:31;;;;;;;10.27;1.70;;;8.00;99.90;;;;;;5039514;28;20048;-62
2023/01/08 08:33:00;;;;;;;5.00;1.45;;;8.00;99.90;;;;;;5039082;28;20051;-63
2023/01/08 08:35:26;;;;;;;6.38;1.25;;;8.00;99.90;;;;;;5038101;28;20041;-64
2023/01/08 08:37:53;;;;;;;4.13;1.48;;;7.90;99.90;;;;;;5037423;28;20056;-64
2023/01/08 08:40:18;;;;;;;6.85;1.50;;;7.90;99.90;;;;;;5039630;28;20414;-64
2023/01/08 08:42:44;;;;;;;6.85;1.80;;;7.90;99.90;;;;;;5038117;28;20040;-64
2023/01/08 08:45:10;;;;;;;8.95;2.53;;;7.90;99.90;;;;;;5019486;28;20127;-64
2023/01/08 08:47:35;;;;;;;8.98;2.70;;;7.80;99.90;;;;;;5037451;28;20051;-62
2023/01/08 08:50:02;;;;;;;8.52;2.88;;;7.80;99.90;;;;;;5019844;28;20123;-64
2023/01/08 08:52:29;;;;;;;8.65;2.95;;;7.70;57.00;;;;;;5019495;28;20430;-64
2023/01/08 08:54:55;;;;;;;10.93;3.40;;;7.80;45.60;;;;;;5019264;28;20036;-64
2023/01/08 08:57:23;;;;;;;10.98;3.58;;;7.80;37.30;;;;;;5035511;28;20051;-63
2023/01/08 08:59:49;;;;;;;9.43;2.95;;;7.70;17.90;;;;;;5036378;28;20125;-64
2023/01/08 09:02:14;;;;;;;9.80;3.25;;;7.70;15.70;;;;;;5037077;28;20457;-64
2023/01/08 09:04:40;;;;;;;8.75;3.85;;;7.80;6.30;;;;;;5020735;28;20105;-63
2023/01/08 09:07:06;;;;;;;9.55;3.53;;;7.80;1.00;;;;;;5036894;28;20148;-63
2023/01/08 09:09:31;;;;;;;8.40;3.30;;;7.80;1.00;;;;;;5019818;28;20045;-64
2023/01/08 09:11:57;;;;;;;8.80;3.10;;;7.90;1.00;;;;;;5037749;28;20041;-64
2023/01/08 09:14:23;;;;;;;9.48;3.60;;;7.90;1.00;;;;;;5007149;28;20751;-63
2023/01/08 09:16:49;;;;;;;8.48;2.95;;;7.80;1.00;;;;;;5022790;28;20146;-64
2023/01/08 09:19:14;;;;;;;9.52;3.00;;;7.90;1.00;;;;;;5019804;28;20204;-64
2023/01/08 09:21:40;;;;;;;9.27;2.53;;;7.90;1.00;;;;;;5037724;28;20033;-64
2023/01/08 09:24:06;;;;;;;7.82;2.53;;;8.00;1.00;;;;;;5037094;28;20040;-64
2023/01/08 09:26:32;;;;;;;7.68;2.22;;;8.00;1.00;;;;;;5037905;28;20079;-63
2023/01/08 09:28:58;;;;;;;8.82;2.17;;;8.00;1.00;;;;;;5019160;28;20063;-65
2023/01/08 09:31:24;;;;;;;11.20;2.47;;;8.00;1.00;;;;;;5019348;28;20056;-65
2023/01/08 09:33:50;;;;;;;7.28;2.28;;;8.10;1.00;;;;;;5037310;28;20481;-64
2023/01/08 09:36:17;;;;;;;8.07;2.00;;;8.10;1.00;;;;;;5019674;28;20073;-65
2023/01/08 09:38:43;;;;;;;7.28;2.40;;;8.20;1.00;;;;;;5036226;28;20061;-65
2023/01/08 09:41:17;;;;;;;9.10;2.00;;;8.20;99.90;;;;;;5035373;28;20482;-65
2023/01/08 09:43:44;;;;;;;;;;;8.20;99.90;;;;;;5037180;28;20048;-65
2023/01/08 09:46:11;;;;;;;7.88;1.50;;;8.30;99.90;;;;;;5016479;28;19924;-66
2023/01/08 09:48:39;;;;;;;9.15;1.90;;;8.30;99.90;;;;;;5036933;28;20041;-65
2023/01/08 09:51:14;;;;;;;8.07;1.60;;;8.30;99.90;;;;;;5037619;28;20109;-65
2023/01/08 09:53:41;;;;;;;6.05;1.15;;;8.40;99.90;;;;;;5018631;28;20049;-65
2023/01/08 09:56:13;;;;;;;7.53;1.25;;;8.50;99.90;;;;;;5036594;28;20044;-65
2023/01/08 09:58:43;;;;;;;5.65;1.10;;;8.50;99.90;;;;;;5039800;28;20434;-64
2023/01/08 10:01:14;;;;;;;7.55;1.20;;;8.60;99.90;;;;;;5037845;28;20032;-64
2023/01/08 10:03:45;;;;;;;7.53;1.35;;;8.60;99.90;;;;;;5035505;28;20442;-65
2023/01/08 10:06:12;;;;;;;9.50;1.40;;;8.60;99.90;;;;;;5016460;28;20499;-65
2023/01/08 10:08:39;;;;;;;6.70;0.90;;;8.80;99.90;;;;;;5034585;28;20523;-65
2023/01/08 10:11:05;;;;;;;8.55;1.52;;;8.80;99.90;;;;;;5036273;28;20120;-65
2023/01/08 10:13:33;;;;;;;6.93;0.88;;;8.90;99.90;;;;;;5035598;28;20048;-64
2023/01/08 10:15:59;;;;;;;7.18;0.85;;;9.00;99.90;;;;;;5035750;28;20078;-65
2023/01/08 10:18:27;;;;;;;8.68;1.15;;;9.20;99.90;;;;;;5017463;28;20079;-65
2023/01/08 10:20:52;;;;;;;5.80;0.60;;;9.70;99.90;;;;;;5019476;28;20045;-65
2023/01/08 10:23:21;;;;;;;6.28;0.80;;;10.00;99.90;;;;;;5037385;28;20048;-64
2023/01/08 10:25:55;;;;;;;8.40;0.70;;;10.40;56.10;;;;;;5003089;28;20037;-64
2023/01/08 10:28:24;;;;;;;7.88;0.80;;;10.40;1.00;;;;;;5036574;28;20577;-65
2023/01/08 10:30:52;;;;;;;8.75;0.80;;;10.40;1.00;;;;;;5035937;28;20072;-65
2023/01/08 10:33:25;;;;;;;10.65;0.73;;;10.50;1.00;;;;;;5017602;28;20072;-65
2023/01/08 10:35:58;;;;;;;8.80;1.35;;;10.70;1.00;;;;;;5035892;28;20037;-64
2023/01/08 10:38:31;;;;;;;7.57;1.00;;;11.00;1.00;;;;;;5003161;28;20051;-65
2023/01/08 10:40:59;;;;;;;9.85;1.20;;;11.20;1.00;;;;;;5018053;28;20040;-65
2023/01/08 10:43:41;;;;;;;7.35;0.80;;;11.30;99.90;;;;;;5036395;28;20048;-65
2023/01/08 10:46:19;;;;;;;5.75;0.80;;;11.00;99.90;;;;;;5036050;28;20060;-65
2023/01/08 10:48:49;;;;;;;7.05;0.50;;;11.50;99.90;;;;;;5035552;28;20477;-65
2023/01/08 10:51:24;;;;;;;10.02;1.17;;;11.40;99.90;;;;;;5001061;28;20048;-65
2023/01/08 10:53:52;;;;;;;7.00;0.93;;;11.60;99.90;;;;;;5035598;28;20051;-65
2023/01/08 10:56:21;;;;;;;8.80;0.80;;;11.60;99.90;;;;;;5034813;28;20216;-64
2023/01/08 10:58:47;;;;;;;6.75;0.85;;;11.50;99.90;;;;;;5035367;28;20320;-64
2023/01/08 11:01:23;;;;;;;9.98;1.10;;;11.00;99.90;;;;;;5017746;28;20045;-65
2023/01/08 11:03:56;;;;;;;7.97;0.90;;;10.80;99.90;;;;;;5034265;28;20399;-65
2023/01/08 11:06:26;;;;;;;9.95;0.95;;;11.00;99.90;;;;;;4984572;28;20049;-64
2023/01/08 11:09:02;;;;;;;10.27;1.23;;;11.50;99.90;;;;;;5038901;28;20052;-64
2023/01/08 11:11:37;;;;;;;5.97;1.50;;;11.90;99.90;;;;;;5022234;28;20483;-64
2023/01/08 11:14:05;;;;;;;9.38;1.30;;;11.80;99.90;;;;;;5038544;28;20110;-65
2023/01/08 11:16:35;;;;;;;9.98;2.22;;;11.80;99.90;;;;;;5039243;28;20180;-65
2023/01/08 11:19:02;;;;;;;11.60;1.40;;;11.70;99.90;;;;;;5039546;28;20045;-65
2023/01/08 11:21:30;;;;;;;6.45;0.90;;;11.80;99.90;;;;;;5021135;28;20040;-64
2023/01/08 11:24:17;;;;;;;8.95;1.50;;;11.60;99.90;;;;;;5020200;28;20040;-65
2023/01/08 11:26:50;;;;;;;9.77;1.30;;;11.60;99.90;;;;;;5040292;28;20028;-63
2023/01/08 11:29:23;;;;;;;9.35;1.08;;;11.70;99.90;;;;;;5023258;28;20197;-62
2023/01/08 11:32:11;;;;;;;11.07;0.95;;;11.80;99.90;;;;;;5040657;28;20127;-62
2023/01/08 11:35:06;;;;;;;9.75;0.95;;;11.70;99.90;;;;;;5039401;28;20045;-64
2023/01/08 11:37:40;;;;;;;7.90;1.13;;;11.80;99.90;;;;;;5021195;28;20103;-63
2023/01/08 11:40:41;;;;;;;;;;;11.60;99.90;;;;;;5040139;28;20107;-63
2023/01/08 11:43:34;;;;;;;7.25;0.77;;;11.40;99.90;;;;;;4988653;28;20015;-65
2023/01/08 11:46:08;;;;;;;13.68;1.05;;;11.80;99.90;;;;;;5038114;28;20147;-64
2023/01/08 11:48:56;;;;;;;7.45;0.90;;;11.90;99.90;;;;;;5039975;28;20097;-65
2023/01/08 11:51:40;;;;;;;9.13;1.00;;;11.80;99.90;;;;;;5021124;28;20564;-65
2023/01/08 11:54:25;;;;;;;10.43;1.08;;;11.70;99.90;;;;;;5037087;28;20041;-66
2023/01/08 11:57:15;;;;;;;11.63;1.30;;;11.90;99.90;;;;;;4998716;28;20127;-66
2023/01/08 11:59:51;;;;;;;10.77;1.00;;;12.10;99.90;;;;;;5020889;28;20342;-66
2023/01/08 12:02:36;;;;;;;9.75;1.52;;;12.30;99.90;;;;;;5036780;28;20037;-62
2023/01/08 12:05:29;;;;;;;9.50;2.00;;;12.30;99.90;;;;;;5020380;28;20037;-63
2023/01/08 12:08:01;;;;;;;12.18;1.70;;;12.20;99.90;;;;;;5037750;28;20775;-63
2023/01/08 12:10:50;;;;;;;12.15;1.40;;;11.90;99.90;;;;;;5039346;28;20052;-64
2023/01/08 12:14:10;;;;;;;11.70;1.30;;;11.40;99.90;;;;;;5039036;28;20045;-65
2023/01/08 12:17:03;;;;;;;12.52;1.58;;;11.10;99.90;;;;;;4940968;28;20358;-65
2023/01/08 12:19:32;;;;;;;8.35;1.58;;;11.20;99.90;;;;;;4957841;28;20094;-63
2023/01/08 12:22:19;;;;;;;10.27;1.52;;;11.10;99.90;;;;;;5001678;28;20277;-65
2023/01/08 12:25:31;;;;;;;8.93;1.15;;;10.70;99.90;;;;;;5038811;28;20044;-65
2023/01/08 12:28:32;;;;;;;10.65;1.90;;;10.70;99.90;;;;;;5024666;28;20057;-65
2023/01/08 12:31:12;;;;;;;10.65;1.58;;;10.40;99.90;;;;;;5039044;28;20045;-65
2023/01/08 12:33:53;;;;;;;12.23;1.52;;;10.70;99.90;;;;;;5037142;28;20041;-64
2023/01/08 12:36:36;;;;;;;13.45;1.58;;;10.60;99.90;;;;;;5020965;28;20045;-64
2023/01/08 12:39:05;;;;;;;;;;;10.30;99.90;;;;;;5020893;28;20041;-63
2023/01/08 12:41:34;;;;;;;11.10;1.25;;;10.10;99.90;;;;;;5037595;28;19932;-64
2023/01/08 12:44:10;;;;;;;10.23;1.10;;;10.20;99.90;;;;;;5039495;28;20365;-63
2023/01/08 12:46:40;;;;;;;12.50;1.45;;;10.60;99.90;;;;;;5021594;28;20127;-64
2023/01/08 12:49:09;;;;;;;11.18;1.52;;;11.10;99.90;;;;;;5020306;28;20433;-63
2023/01/08 12:51:47;;;;;;;11.98;1.95;;;11.50;99.90;;;;;;4961243;28;20124;-63
2023/01/08 12:54:18;;;;;;;12.10;1.08;;;11.40;99.90;;;;;;5018756;28;20049;-63
2023/01/08 12:56:48;;;;;;;11.30;1.65;;;11.30;99.90;;;;;;5022756;28;20052;-64
2023/01/08 12:59:29;;;;;;;10.20;0.73;;;11.20;99.90;;;;;;5022098;28;20311;-64
2023/01/08 13:02:06;;;;;;;7.95;1.10;;;11.20;99.90;;;;;;4996653;28;20134;-64
2023/01/08 13:04:46;;;;;;;10.10;1.20;;;11.30;99.90;;;;;;5037948;28;20783;-64
2023/01/08 13:07:24;;;;;;;12.80;1.50;;;11.20;99.90;;;;;;5037042;28;20060;-63
2023/01/08 13:10:00;;;;;;;8.15;1.25;;;11.00;99.90;;;;;;5038238;28;20052;-63